sensor_id;sensor_type;location;lat;lon;timestamp;temperature;humidity
21246;DHT22;10781;50.928;4.440;2023-08-31T00:02:17;13.80;99.90
21246;DHT22;10781;50.928;4.440;2023-08-31T00:04:44;13.70;99.90
21246;DHT22;10781;50.928;4.440;2023-08-31T00:07:09;13.80;99.90
21246;DHT22;10781;50.928;4.440;2023-08-31T00:09:36;13.70;99.90
21246;DHT22;10781;50.928;4.440;2023-08-31T00:12:02;13.70;99.90
21246;DHT22;10781;50.928;4.440;2023-08-31T00:14:28;13.70;99.90
21246;DHT22;10781;50.928;4.440;2023-08-31T00:16:54;13.80;99.90
21246;DHT22;10781;50.928;4.440;2023-08-31T00:19:23;13.80;99.90
21246;DHT22;10781;50.928;4.440;2023-08-31T00:21:48;13.80;99.90
21246;DHT22;10781;50.928;4.440;2023-08-31T00:24:14;13.70;99.90
21246;DHT22;10781;50.928;4.440;2023-08-31T00:26:40;13.80;99.90
21246;DHT22;10781;50.928;4.440;2023-08-31T00:29:16;13.80;99.90
21246;DHT22;10781;50.928;4.440;2023-08-31T00:31:42;13.80;99.90
21246;DHT22;10781;50.928;4.440;2023-08-31T00:34:10;13.70;99.90
21246;DHT22;10781;50.928;4.440;2023-08-31T00:36:43;13.60;99.90
21246;DHT22;10781;50.928;4.440;2023-08-31T00:39:09;13.80;99.90
21246;DHT22;10781;50.928;4.440;2023-08-31T00:41:36;13.80;99.90
21246;DHT22;10781;50.928;4.440;2023-08-31T00:44:03;13.80;99.90
21246;DHT22;10781;50.928;4.440;2023-08-31T00:46:35;13.80;99.90
21246;DHT22;10781;50.928;4.440;2023-08-31T00:49:01;13.80;99.90
21246;DHT22;10781;50.928;4.440;2023-08-31T00:51:29;13.80;99.90
21246;DHT22;10781;50.928;4.440;2023-08-31T00:53:55;13.80;99.90
21246;DHT22;10781;50.928;4.440;2023-08-31T00:56:21;13.80;99.90
21246;DHT22;10781;50.928;4.440;2023-08-31T00:58:47;13.70;99.90
21246;DHT22;10781;50.928;4.440;2023-08-31T01:03:43;13.70;99.90
21246;DHT22;10781;50.928;4.440;2023-08-31T01:09:02;13.80;99.90
21246;DHT22;10781;50.928;4.440;2023-08-31T01:11:58;13.80;99.90
21246;DHT22;10781;50.928;4.440;2023-08-31T01:14:30;13.70;99.90
21246;DHT22;10781;50.928;4.440;2023-08-31T01:16:58;13.60;99.90
21246;DHT22;10781;50.928;4.440;2023-08-31T01:22:05;13.60;99.90
21246;DHT22;10781;50.928;4.440;2023-08-31T01:24:31;13.70;99.90
21246;DHT22;10781;50.928;4.440;2023-08-31T01:26:57;13.70;99.90
21246;DHT22;10781;50.928;4.440;2023-08-31T01:29:23;13.80;99.90
21246;DHT22;10781;50.928;4.440;2023-08-31T01:31:49;13.80;99.90
21246;DHT22;10781;50.928;4.440;2023-08-31T01:34:15;13.90;99.90
21246;DHT22;10781;50.928;4.440;2023-08-31T01:36:47;13.80;99.90
21246;DHT22;10781;50.928;4.440;2023-08-31T01:39:29;13.70;99.90
21246;DHT22;10781;50.928;4.440;2023-08-31T01:42:02;13.70;99.90
21246;DHT22;10781;50.928;4.440;2023-08-31T01:44:31;13.70;99.90
21246;DHT22;10781;50.928;4.440;2023-08-31T01:47:06;13.60;99.90
21246;DHT22;10781;50.928;4.440;2023-08-31T01:49:41;13.80;99.90
21246;DHT22;10781;50.928;4.440;2023-08-31T01:52:14;13.80;99.90
21246;DHT22;10781;50.928;4.440;2023-08-31T01:54:40;13.80;99.90
21246;DHT22;10781;50.928;4.440;2023-08-31T01:57:06;13.70;99.90
21246;DHT22;10781;50.928;4.440;2023-08-31T01:59:34;13.70;99.90
21246;DHT22;10781;50.928;4.440;2023-08-31T02:02:01;13.70;99.90
21246;DHT22;10781;50.928;4.440;2023-08-31T02:04:26;13.60;99.90
21246;DHT22;10781;50.928;4.440;2023-08-31T02:06:52;13.70;99.90
21246;DHT22;10781;50.928;4.440;2023-08-31T02:09:18;13.70;99.90
21246;DHT22;10781;50.928;4.440;2023-08-31T02:11:43;13.60;99.90
21246;DHT22;10781;50.928;4.440;2023-08-31T02:14:09;13.60;99.90
21246;DHT22;10781;50.928;4.440;2023-08-31T02:16:35;13.60;99.90
21246;DHT22;10781;50.928;4.440;2023-08-31T02:19:00;13.70;99.90
21246;DHT22;10781;50.928;4.440;2023-08-31T02:21:26;13.70;99.90
21246;DHT22;10781;50.928;4.440;2023-08-31T02:23:51;13.70;99.90
21246;DHT22;10781;50.928;4.440;2023-08-31T02:26:17;13.70;99.90
21246;DHT22;10781;50.928;4.440;2023-08-31T02:28:43;13.70;99.90
21246;DHT22;10781;50.928;4.440;2023-08-31T02:31:10;13.70;99.90
21246;DHT22;10781;50.928;4.440;2023-08-31T02:33:35;13.70;99.90
21246;DHT22;10781;50.928;4.440;2023-08-31T02:36:01;13.60;99.90
21246;DHT22;10781;50.928;4.440;2023-08-31T02:38:27;13.60;99.90
21246;DHT22;10781;50.928;4.440;2023-08-31T02:40:53;13.70;99.90
21246;DHT22;10781;50.928;4.440;2023-08-31T02:43:18;13.70;99.90
21246;DHT22;10781;50.928;4.440;2023-08-31T02:45:44;13.90;99.90
21246;DHT22;10781;50.928;4.440;2023-08-31T02:48:10;13.80;99.90
21246;DHT22;10781;50.928;4.440;2023-08-31T02:50:35;13.80;99.90
21246;DHT22;10781;50.928;4.440;2023-08-31T02:53:01;13.90;99.90
21246;DHT22;10781;50.928;4.440;2023-08-31T02:55:27;14.00;99.90
21246;DHT22;10781;50.928;4.440;2023-08-31T02:57:54;14.10;99.90
21246;DHT22;10781;50.928;4.440;2023-08-31T03:00:19;14.10;99.90
21246;DHT22;10781;50.928;4.440;2023-08-31T03:02:48;14.10;99.90
21246;DHT22;10781;50.928;4.440;2023-08-31T03:05:18;14.10;99.90
21246;DHT22;10781;50.928;4.440;2023-08-31T03:07:43;14.20;99.90
21246;DHT22;10781;50.928;4.440;2023-08-31T03:10:09;14.20;99.90
21246;DHT22;10781;50.928;4.440;2023-08-31T03:12:36;14.20;99.90
21246;DHT22;10781;50.928;4.440;2023-08-31T03:15:02;14.10;99.90
21246;DHT22;10781;50.928;4.440;2023-08-31T03:17:28;14.20;99.90
21246;DHT22;10781;50.928;4.440;2023-08-31T03:19:53;14.10;99.90
21246;DHT22;10781;50.928;4.440;2023-08-31T03:22:19;14.10;99.90
21246;DHT22;10781;50.928;4.440;2023-08-31T03:24:44;14.10;99.90
21246;DHT22;10781;50.928;4.440;2023-08-31T03:27:10;14.10;99.90
21246;DHT22;10781;50.928;4.440;2023-08-31T03:29:36;14.00;99.90
21246;DHT22;10781;50.928;4.440;2023-08-31T03:32:02;14.10;99.90
21246;DHT22;10781;50.928;4.440;2023-08-31T03:34:31;14.00;99.90
21246;DHT22;10781;50.928;4.440;2023-08-31T03:36:57;14.10;99.90
21246;DHT22;10781;50.928;4.440;2023-08-31T03:39:27;14.00;99.90
21246;DHT22;10781;50.928;4.440;2023-08-31T03:41:52;13.90;99.90
21246;DHT22;10781;50.928;4.440;2023-08-31T03:44:19;13.90;99.90
21246;DHT22;10781;50.928;4.440;2023-08-31T03:46:45;13.80;99.90
21246;DHT22;10781;50.928;4.440;2023-08-31T03:49:11;13.90;99.90
21246;DHT22;10781;50.928;4.440;2023-08-31T03:51:36;14.00;99.90
21246;DHT22;10781;50.928;4.440;2023-08-31T03:54:02;13.90;99.90
21246;DHT22;10781;50.928;4.440;2023-08-31T03:56:28;14.00;99.90
21246;DHT22;10781;50.928;4.440;2023-08-31T03:58:54;14.00;99.90
21246;DHT22;10781;50.928;4.440;2023-08-31T04:01:19;14.10;99.90
21246;DHT22;10781;50.928;4.440;2023-08-31T04:03:45;14.00;99.90
21246;DHT22;10781;50.928;4.440;2023-08-31T04:06:11;14.00;99.90
21246;DHT22;10781;50.928;4.440;2023-08-31T04:08:37;14.00;99.90
21246;DHT22;10781;50.928;4.440;2023-08-31T04:11:02;14.00;99.90
21246;DHT22;10781;50.928;4.440;2023-08-31T04:13:28;14.10;99.90
21246;DHT22;10781;50.928;4.440;2023-08-31T04:15:54;14.10;99.90
21246;DHT22;10781;50.928;4.440;2023-08-31T04:18:20;14.10;99.90
21246;DHT22;10781;50.928;4.440;2023-08-31T04:20:52;14.10;99.90
21246;DHT22;10781;50.928;4.440;2023-08-31T04:23:18;14.10;99.90
21246;DHT22;10781;50.928;4.440;2023-08-31T04:25:45;14.00;99.90
21246;DHT22;10781;50.928;4.440;2023-08-31T04:28:11;14.10;99.90
21246;DHT22;10781;50.928;4.440;2023-08-31T04:30:37;14.10;99.90
21246;DHT22;10781;50.928;4.440;2023-08-31T04:33:03;14.00;99.90
21246;DHT22;10781;50.928;4.440;2023-08-31T04:35:30;14.00;99.90
21246;DHT22;10781;50.928;4.440;2023-08-31T04:37:57;14.10;99.90
21246;DHT22;10781;50.928;4.440;2023-08-31T04:40:23;14.10;99.90
21246;DHT22;10781;50.928;4.440;2023-08-31T04:42:49;14.10;99.90
21246;DHT22;10781;50.928;4.440;2023-08-31T04:45:15;14.10;99.90
21246;DHT22;10781;50.928;4.440;2023-08-31T04:47:41;14.00;99.90
21246;DHT22;10781;50.928;4.440;2023-08-31T04:50:07;14.00;99.90
21246;DHT22;10781;50.928;4.440;2023-08-31T04:52:33;13.90;99.90
21246;DHT22;10781;50.928;4.440;2023-08-31T04:55:01;13.80;99.90
21246;DHT22;10781;50.928;4.440;2023-08-31T04:57:29;13.90;99.90
21246;DHT22;10781;50.928;4.440;2023-08-31T04:59:54;13.80;99.90
21246;DHT22;10781;50.928;4.440;2023-08-31T05:02:20;13.80;99.90
21246;DHT22;10781;50.928;4.440;2023-08-31T05:04:46;13.90;99.90
21246;DHT22;10781;50.928;4.440;2023-08-31T05:07:11;13.80;99.90
21246;DHT22;10781;50.928;4.440;2023-08-31T05:09:37;13.80;99.90
21246;DHT22;10781;50.928;4.440;2023-08-31T05:12:03;14.00;99.90
21246;DHT22;10781;50.928;4.440;2023-08-31T05:14:29;14.10;99.90
21246;DHT22;10781;50.928;4.440;2023-08-31T05:16:55;14.10;99.90
21246;DHT22;10781;50.928;4.440;2023-08-31T05:19:21;14.00;99.90
21246;DHT22;10781;50.928;4.440;2023-08-31T05:21:46;14.00;99.90
21246;DHT22;10781;50.928;4.440;2023-08-31T05:24:12;14.10;99.90
21246;DHT22;10781;50.928;4.440;2023-08-31T05:26:39;14.00;99.90
21246;DHT22;10781;50.928;4.440;2023-08-31T05:29:05;14.10;99.90
21246;DHT22;10781;50.928;4.440;2023-08-31T05:31:31;14.10;99.90
21246;DHT22;10781;50.928;4.440;2023-08-31T05:33:59;14.10;99.90
21246;DHT22;10781;50.928;4.440;2023-08-31T05:36:25;14.20;99.90
21246;DHT22;10781;50.928;4.440;2023-08-31T05:38:51;14.20;99.90
21246;DHT22;10781;50.928;4.440;2023-08-31T05:41:17;14.20;99.90
21246;DHT22;10781;50.928;4.440;2023-08-31T05:43:43;14.10;99.90
21246;DHT22;10781;50.928;4.440;2023-08-31T05:46:09;14.20;99.90
21246;DHT22;10781;50.928;4.440;2023-08-31T05:48:35;14.20;99.90
21246;DHT22;10781;50.928;4.440;2023-08-31T05:51:01;14.30;99.90
21246;DHT22;10781;50.928;4.440;2023-08-31T05:53:32;14.30;99.90
21246;DHT22;10781;50.928;4.440;2023-08-31T05:55:58;14.30;99.90
21246;DHT22;10781;50.928;4.440;2023-08-31T05:58:33;14.30;99.90
21246;DHT22;10781;50.928;4.440;2023-08-31T06:01:00;14.30;99.90
21246;DHT22;10781;50.928;4.440;2023-08-31T06:03:26;14.40;99.90
21246;DHT22;10781;50.928;4.440;2023-08-31T06:05:53;14.40;99.90
21246;DHT22;10781;50.928;4.440;2023-08-31T06:08:18;14.50;99.90
21246;DHT22;10781;50.928;4.440;2023-08-31T06:10:44;14.50;99.90
21246;DHT22;10781;50.928;4.440;2023-08-31T06:13:10;14.50;99.90
21246;DHT22;10781;50.928;4.440;2023-08-31T06:15:35;14.50;99.90
21246;DHT22;10781;50.928;4.440;2023-08-31T06:18:01;14.50;99.90
21246;DHT22;10781;50.928;4.440;2023-08-31T06:20:26;14.60;99.90
21246;DHT22;10781;50.928;4.440;2023-08-31T06:22:52;14.70;99.90
21246;DHT22;10781;50.928;4.440;2023-08-31T06:25:18;14.70;99.90
21246;DHT22;10781;50.928;4.440;2023-08-31T06:27:44;14.80;99.90
21246;DHT22;10781;50.928;4.440;2023-08-31T06:30:10;15.60;99.90
21246;DHT22;10781;50.928;4.440;2023-08-31T06:32:45;16.10;99.90
21246;DHT22;10781;50.928;4.440;2023-08-31T06:35:12;16.50;99.90
21246;DHT22;10781;50.928;4.440;2023-08-31T06:37:39;16.70;99.90
21246;DHT22;10781;50.928;4.440;2023-08-31T06:40:09;17.00;99.90
21246;DHT22;10781;50.928;4.440;2023-08-31T06:42:38;17.40;99.90
21246;DHT22;10781;50.928;4.440;2023-08-31T06:45:05;17.70;99.90
21246;DHT22;10781;50.928;4.440;2023-08-31T06:47:32;17.90;99.90
21246;DHT22;10781;50.928;4.440;2023-08-31T06:49:59;18.60;99.90
21246;DHT22;10781;50.928;4.440;2023-08-31T06:52:27;18.90;99.90
21246;DHT22;10781;50.928;4.440;2023-08-31T06:54:53;19.70;99.90
21246;DHT22;10781;50.928;4.440;2023-08-31T06:57:21;19.40;99.90
21246;DHT22;10781;50.928;4.440;2023-08-31T06:59:47;19.40;99.90
21246;DHT22;10781;50.928;4.440;2023-08-31T07:02:13;19.40;99.90
21246;DHT22;10781;50.928;4.440;2023-08-31T07:04:39;19.60;99.90
21246;DHT22;10781;50.928;4.440;2023-08-31T07:07:06;20.10;99.90
21246;DHT22;10781;50.928;4.440;2023-08-31T07:09:31;20.40;99.90
21246;DHT22;10781;50.928;4.440;2023-08-31T07:11:57;20.60;99.90
21246;DHT22;10781;50.928;4.440;2023-08-31T07:14:23;20.60;99.90
21246;DHT22;10781;50.928;4.440;2023-08-31T07:16:49;20.80;99.90
21246;DHT22;10781;50.928;4.440;2023-08-31T07:19:15;20.70;99.90
21246;DHT22;10781;50.928;4.440;2023-08-31T07:21:41;20.20;99.90
21246;DHT22;10781;50.928;4.440;2023-08-31T07:24:07;20.30;99.90
21246;DHT22;10781;50.928;4.440;2023-08-31T07:26:32;20.70;99.90
21246;DHT22;10781;50.928;4.440;2023-08-31T07:29:00;20.30;99.90
21246;DHT22;10781;50.928;4.440;2023-08-31T07:31:27;20.40;99.90
21246;DHT22;10781;50.928;4.440;2023-08-31T07:33:52;21.50;99.90
21246;DHT22;10781;50.928;4.440;2023-08-31T07:36:21;22.40;99.90
21246;DHT22;10781;50.928;4.440;2023-08-31T07:38:47;23.50;99.90
21246;DHT22;10781;50.928;4.440;2023-08-31T07:41:13;23.60;99.90
21246;DHT22;10781;50.928;4.440;2023-08-31T07:43:38;23.80;99.90
21246;DHT22;10781;50.928;4.440;2023-08-31T07:46:04;24.50;99.90
21246;DHT22;10781;50.928;4.440;2023-08-31T07:48:29;24.60;99.90
21246;DHT22;10781;50.928;4.440;2023-08-31T07:50:55;24.60;99.90
21246;DHT22;10781;50.928;4.440;2023-08-31T07:53:21;24.40;99.90
21246;DHT22;10781;50.928;4.440;2023-08-31T07:55:55;24.50;99.90
21246;DHT22;10781;50.928;4.440;2023-08-31T07:58:22;25.60;99.90
21246;DHT22;10781;50.928;4.440;2023-08-31T08:00:48;26.40;99.90
21246;DHT22;10781;50.928;4.440;2023-08-31T08:03:14;26.40;99.90
21246;DHT22;10781;50.928;4.440;2023-08-31T08:05:40;27.60;99.90
21246;DHT22;10781;50.928;4.440;2023-08-31T08:08:06;27.80;99.90
21246;DHT22;10781;50.928;4.440;2023-08-31T08:10:32;28.00;99.90
21246;DHT22;10781;50.928;4.440;2023-08-31T08:12:58;28.00;99.90
21246;DHT22;10781;50.928;4.440;2023-08-31T08:15:24;27.20;99.90
21246;DHT22;10781;50.928;4.440;2023-08-31T08:17:50;25.80;99.90
21246;DHT22;10781;50.928;4.440;2023-08-31T08:20:16;25.60;99.90
21246;DHT22;10781;50.928;4.440;2023-08-31T08:22:41;25.00;99.90
21246;DHT22;10781;50.928;4.440;2023-08-31T08:25:07;26.00;99.90
21246;DHT22;10781;50.928;4.440;2023-08-31T08:27:33;27.10;99.90
21246;DHT22;10781;50.928;4.440;2023-08-31T08:29:59;27.00;99.90
21246;DHT22;10781;50.928;4.440;2023-08-31T08:32:25;26.70;99.90
21246;DHT22;10781;50.928;4.440;2023-08-31T08:34:51;26.70;99.90
21246;DHT22;10781;50.928;4.440;2023-08-31T08:37:16;28.00;99.90
21246;DHT22;10781;50.928;4.440;2023-08-31T08:39:42;29.00;99.90
21246;DHT22;10781;50.928;4.440;2023-08-31T08:42:10;30.20;99.90
21246;DHT22;10781;50.928;4.440;2023-08-31T08:44:36;31.50;99.90
21246;DHT22;10781;50.928;4.440;2023-08-31T08:47:02;31.70;99.90
21246;DHT22;10781;50.928;4.440;2023-08-31T08:49:31;30.10;99.90
21246;DHT22;10781;50.928;4.440;2023-08-31T08:51:58;29.90;99.90
21246;DHT22;10781;50.928;4.440;2023-08-31T08:54:25;29.90;99.90
21246;DHT22;10781;50.928;4.440;2023-08-31T08:56:51;30.00;99.90
21246;DHT22;10781;50.928;4.440;2023-08-31T08:59:16;29.60;99.90
21246;DHT22;10781;50.928;4.440;2023-08-31T09:01:42;29.40;99.90
21246;DHT22;10781;50.928;4.440;2023-08-31T09:04:09;29.30;99.90
21246;DHT22;10781;50.928;4.440;2023-08-31T09:06:35;28.60;99.90
21246;DHT22;10781;50.928;4.440;2023-08-31T09:09:01;28.80;99.90
21246;DHT22;10781;50.928;4.440;2023-08-31T09:11:26;28.90;99.90
21246;DHT22;10781;50.928;4.440;2023-08-31T09:13:53;28.60;99.90
21246;DHT22;10781;50.928;4.440;2023-08-31T09:16:29;28.50;99.90
21246;DHT22;10781;50.928;4.440;2023-08-31T09:18:56;28.40;99.90
21246;DHT22;10781;50.928;4.440;2023-08-31T09:21:22;29.10;99.90
21246;DHT22;10781;50.928;4.440;2023-08-31T09:23:59;29.10;99.90
21246;DHT22;10781;50.928;4.440;2023-08-31T09:26:25;29.80;99.90
21246;DHT22;10781;50.928;4.440;2023-08-31T09:28:51;30.60;99.90
21246;DHT22;10781;50.928;4.440;2023-08-31T09:31:17;30.70;99.20
21246;DHT22;10781;50.928;4.440;2023-08-31T09:33:50;31.20;97.60
21246;DHT22;10781;50.928;4.440;2023-08-31T09:36:16;30.50;95.50
21246;DHT22;10781;50.928;4.440;2023-08-31T09:38:43;29.70;96.50
21246;DHT22;10781;50.928;4.440;2023-08-31T09:41:09;29.00;98.60
21246;DHT22;10781;50.928;4.440;2023-08-31T09:43:35;28.90;98.90
21246;DHT22;10781;50.928;4.440;2023-08-31T09:46:03;29.90;98.30
21246;DHT22;10781;50.928;4.440;2023-08-31T09:48:29;30.60;97.90
21246;DHT22;10781;50.928;4.440;2023-08-31T09:50:56;31.40;95.20
21246;DHT22;10781;50.928;4.440;2023-08-31T09:53:24;32.00;93.90
21246;DHT22;10781;50.928;4.440;2023-08-31T09:55:51;33.30;92.90
21246;DHT22;10781;50.928;4.440;2023-08-31T09:58:30;33.10;92.00
21246;DHT22;10781;50.928;4.440;2023-08-31T10:00:56;33.50;87.90
21246;DHT22;10781;50.928;4.440;2023-08-31T10:03:23;33.20;87.60
21246;DHT22;10781;50.928;4.440;2023-08-31T10:05:50;32.70;87.50
21246;DHT22;10781;50.928;4.440;2023-08-31T10:08:16;33.20;87.20
21246;DHT22;10781;50.928;4.440;2023-08-31T10:10:42;33.60;85.90
21246;DHT22;10781;50.928;4.440;2023-08-31T10:13:08;33.20;84.80
21246;DHT22;10781;50.928;4.440;2023-08-31T10:15:35;33.50;84.90
21246;DHT22;10781;50.928;4.440;2023-08-31T10:18:06;32.20;84.50
21246;DHT22;10781;50.928;4.440;2023-08-31T10:20:33;32.80;86.00
21246;DHT22;10781;50.928;4.440;2023-08-31T10:25:25;31.00;86.60
21246;DHT22;10781;50.928;4.440;2023-08-31T10:28:18;31.30;88.90
21246;DHT22;10781;50.928;4.440;2023-08-31T10:31:03;30.40;89.20
21246;DHT22;10781;50.928;4.440;2023-08-31T10:33:43;29.60;91.20
21246;DHT22;10781;50.928;4.440;2023-08-31T10:36:14;29.70;92.20
21246;DHT22;10781;50.928;4.440;2023-08-31T10:38:40;30.40;90.30
21246;DHT22;10781;50.928;4.440;2023-08-31T10:43:49;29.30;92.00
21246;DHT22;10781;50.928;4.440;2023-08-31T10:46:41;29.00;92.80
21246;DHT22;10781;50.928;4.440;2023-08-31T10:51:38;29.90;91.50
21246;DHT22;10781;50.928;4.440;2023-08-31T11:02:07;30.20;81.90
21246;DHT22;10781;50.928;4.440;2023-08-31T11:04:53;28.90;87.20
21246;DHT22;10781;50.928;4.440;2023-08-31T11:07:23;27.90;90.30
21246;DHT22;10781;50.928;4.440;2023-08-31T11:09:49;28.30;92.60
21246;DHT22;10781;50.928;4.440;2023-08-31T11:12:15;29.40;87.90
21246;DHT22;10781;50.928;4.440;2023-08-31T11:14:41;30.00;86.90
21246;DHT22;10781;50.928;4.440;2023-08-31T11:17:07;30.30;86.30
21246;DHT22;10781;50.928;4.440;2023-08-31T11:19:34;29.60;86.70
21246;DHT22;10781;50.928;4.440;2023-08-31T11:22:03;29.10;88.60
21246;DHT22;10781;50.928;4.440;2023-08-31T11:24:30;29.20;89.50
21246;DHT22;10781;50.928;4.440;2023-08-31T11:26:57;30.00;90.20
21246;DHT22;10781;50.928;4.440;2023-08-31T11:29:23;30.70;85.70
21246;DHT22;10781;50.928;4.440;2023-08-31T11:31:48;30.70;83.00
21246;DHT22;10781;50.928;4.440;2023-08-31T11:34:15;32.20;82.20
21246;DHT22;10781;50.928;4.440;2023-08-31T11:36:45;31.40;78.50
21246;DHT22;10781;50.928;4.440;2023-08-31T11:39:12;30.30;83.00
21246;DHT22;10781;50.928;4.440;2023-08-31T11:41:38;30.20;82.40
21246;DHT22;10781;50.928;4.440;2023-08-31T11:44:13;30.30;84.80
21246;DHT22;10781;50.928;4.440;2023-08-31T11:46:40;30.60;83.00
21246;DHT22;10781;50.928;4.440;2023-08-31T11:49:08;30.30;84.00
21246;DHT22;10781;50.928;4.440;2023-08-31T11:51:34;31.60;86.60
21246;DHT22;10781;50.928;4.440;2023-08-31T11:54:01;31.50;81.70
21246;DHT22;10781;50.928;4.440;2023-08-31T11:59:14;32.40;83.30
21246;DHT22;10781;50.928;4.440;2023-08-31T12:01:42;32.70;79.80
21246;DHT22;10781;50.928;4.440;2023-08-31T12:04:26;33.10;79.00
21246;DHT22;10781;50.928;4.440;2023-08-31T12:07:01;32.70;79.40
21246;DHT22;10781;50.928;4.440;2023-08-31T12:09:30;30.80;78.30
21246;DHT22;10781;50.928;4.440;2023-08-31T12:11:56;28.80;77.90
21246;DHT22;10781;50.928;4.440;2023-08-31T12:14:26;27.40;82.50
21246;DHT22;10781;50.928;4.440;2023-08-31T12:17:02;26.20;83.40
21246;DHT22;10781;50.928;4.440;2023-08-31T12:19:28;25.00;86.20
21246;DHT22;10781;50.928;4.440;2023-08-31T12:21:57;24.60;90.20
21246;DHT22;10781;50.928;4.440;2023-08-31T12:24:23;24.30;91.30
21246;DHT22;10781;50.928;4.440;2023-08-31T12:26:50;23.60;92.60
21246;DHT22;10781;50.928;4.440;2023-08-31T12:29:16;23.40;94.60
21246;DHT22;10781;50.928;4.440;2023-08-31T12:31:42;23.40;95.40
21246;DHT22;10781;50.928;4.440;2023-08-31T12:34:09;23.40;96.20
21246;DHT22;10781;50.928;4.440;2023-08-31T12:36:35;23.50;95.80
21246;DHT22;10781;50.928;4.440;2023-08-31T12:39:03;23.50;97.00
21246;DHT22;10781;50.928;4.440;2023-08-31T12:41:35;23.70;97.60
21246;DHT22;10781;50.928;4.440;2023-08-31T12:44:02;23.80;98.40
21246;DHT22;10781;50.928;4.440;2023-08-31T12:46:29;23.80;98.30
21246;DHT22;10781;50.928;4.440;2023-08-31T12:48:54;23.80;98.60
21246;DHT22;10781;50.928;4.440;2023-08-31T12:51:20;24.10;99.20
21246;DHT22;10781;50.928;4.440;2023-08-31T12:53:46;24.30;98.90
21246;DHT22;10781;50.928;4.440;2023-08-31T12:56:12;24.30;99.10
21246;DHT22;10781;50.928;4.440;2023-08-31T12:58:38;24.40;98.70
21246;DHT22;10781;50.928;4.440;2023-08-31T13:01:04;24.10;99.00
21246;DHT22;10781;50.928;4.440;2023-08-31T13:03:30;23.60;99.70
21246;DHT22;10781;50.928;4.440;2023-08-31T13:05:56;23.60;99.90
21246;DHT22;10781;50.928;4.440;2023-08-31T13:08:21;23.70;99.90
21246;DHT22;10781;50.928;4.440;2023-08-31T13:10:54;23.50;99.90
21246;DHT22;10781;50.928;4.440;2023-08-31T13:13:20;23.50;99.90
21246;DHT22;10781;50.928;4.440;2023-08-31T13:15:49;23.70;99.90
21246;DHT22;10781;50.928;4.440;2023-08-31T13:18:15;24.30;99.90
21246;DHT22;10781;50.928;4.440;2023-08-31T13:20:54;25.00;98.20
21246;DHT22;10781;50.928;4.440;2023-08-31T13:23:21;25.40;96.70
21246;DHT22;10781;50.928;4.440;2023-08-31T13:25:48;26.50;96.80
21246;DHT22;10781;50.928;4.440;2023-08-31T13:28:14;26.80;94.20
21246;DHT22;10781;50.928;4.440;2023-08-31T13:30:40;27.40;92.50
21246;DHT22;10781;50.928;4.440;2023-08-31T13:33:06;28.40;91.90
21246;DHT22;10781;50.928;4.440;2023-08-31T13:35:33;28.80;90.90
21246;DHT22;10781;50.928;4.440;2023-08-31T13:37:58;29.40;88.90
21246;DHT22;10781;50.928;4.440;2023-08-31T13:40:24;29.90;83.90
21246;DHT22;10781;50.928;4.440;2023-08-31T13:42:55;29.70;82.00
21246;DHT22;10781;50.928;4.440;2023-08-31T13:45:22;29.00;83.00
21246;DHT22;10781;50.928;4.440;2023-08-31T13:47:48;28.90;86.00
21246;DHT22;10781;50.928;4.440;2023-08-31T13:50:15;28.70;83.10
21246;DHT22;10781;50.928;4.440;2023-08-31T13:52:41;27.80;86.70
21246;DHT22;10781;50.928;4.440;2023-08-31T13:55:07;27.40;85.90
21246;DHT22;10781;50.928;4.440;2023-08-31T13:57:33;26.90;88.20
21246;DHT22;10781;50.928;4.440;2023-08-31T13:59:58;26.60;88.80
21246;DHT22;10781;50.928;4.440;2023-08-31T14:02:25;26.50;87.50
21246;DHT22;10781;50.928;4.440;2023-08-31T14:04:51;26.00;89.80
21246;DHT22;10781;50.928;4.440;2023-08-31T14:07:17;25.10;90.10
21246;DHT22;10781;50.928;4.440;2023-08-31T14:09:43;24.90;91.10
21246;DHT22;10781;50.928;4.440;2023-08-31T14:12:09;25.10;91.30
21246;DHT22;10781;50.928;4.440;2023-08-31T14:14:34;25.20;92.20
21246;DHT22;10781;50.928;4.440;2023-08-31T14:17:00;25.30;92.30
21246;DHT22;10781;50.928;4.440;2023-08-31T14:19:26;25.10;92.40
21246;DHT22;10781;50.928;4.440;2023-08-31T14:21:52;25.30;91.60
21246;DHT22;10781;50.928;4.440;2023-08-31T14:24:18;25.30;92.50
21246;DHT22;10781;50.928;4.440;2023-08-31T14:26:44;25.60;92.50
21246;DHT22;10781;50.928;4.440;2023-08-31T14:29:10;25.70;92.40
21246;DHT22;10781;50.928;4.440;2023-08-31T14:31:37;25.70;92.60
21246;DHT22;10781;50.928;4.440;2023-08-31T14:34:03;26.60;91.10
21246;DHT22;10781;50.928;4.440;2023-08-31T14:36:28;26.60;91.10
21246;DHT22;10781;50.928;4.440;2023-08-31T14:38:54;26.70;91.10
21246;DHT22;10781;50.928;4.440;2023-08-31T14:41:20;26.20;91.00
21246;DHT22;10781;50.928;4.440;2023-08-31T14:43:46;25.90;92.30
21246;DHT22;10781;50.928;4.440;2023-08-31T14:46:12;25.70;93.00
21246;DHT22;10781;50.928;4.440;2023-08-31T14:48:37;25.80;92.80
21246;DHT22;10781;50.928;4.440;2023-08-31T14:51:03;25.90;92.70
21246;DHT22;10781;50.928;4.440;2023-08-31T14:53:29;25.20;92.90
21246;DHT22;10781;50.928;4.440;2023-08-31T14:55:54;24.80;93.80
21246;DHT22;10781;50.928;4.440;2023-08-31T14:58:20;24.40;94.50
21246;DHT22;10781;50.928;4.440;2023-08-31T15:00:46;24.10;95.40
21246;DHT22;10781;50.928;4.440;2023-08-31T15:03:12;23.50;96.20
21246;DHT22;10781;50.928;4.440;2023-08-31T15:05:38;23.10;97.40
21246;DHT22;10781;50.928;4.440;2023-08-31T15:08:07;23.00;98.20
21246;DHT22;10781;50.928;4.440;2023-08-31T15:10:32;23.10;97.70
21246;DHT22;10781;50.928;4.440;2023-08-31T15:12:58;22.80;97.40
21246;DHT22;10781;50.928;4.440;2023-08-31T15:15:28;23.00;98.20
21246;DHT22;10781;50.928;4.440;2023-08-31T15:17:54;22.90;98.40
21246;DHT22;10781;50.928;4.440;2023-08-31T15:20:20;23.00;98.90
21246;DHT22;10781;50.928;4.440;2023-08-31T15:22:46;23.00;99.40
21246;DHT22;10781;50.928;4.440;2023-08-31T15:25:12;23.00;99.10
21246;DHT22;10781;50.928;4.440;2023-08-31T15:27:38;22.70;99.90
21246;DHT22;10781;50.928;4.440;2023-08-31T15:30:04;22.70;99.90
21246;DHT22;10781;50.928;4.440;2023-08-31T15:32:33;22.60;99.90
21246;DHT22;10781;50.928;4.440;2023-08-31T15:34:58;22.80;99.90
21246;DHT22;10781;50.928;4.440;2023-08-31T15:37:24;22.70;99.90
21246;DHT22;10781;50.928;4.440;2023-08-31T15:39:51;22.80;99.90
21246;DHT22;10781;50.928;4.440;2023-08-31T15:42:16;22.80;99.90
21246;DHT22;10781;50.928;4.440;2023-08-31T15:44:42;22.30;99.90
21246;DHT22;10781;50.928;4.440;2023-08-31T15:47:09;22.30;99.90
21246;DHT22;10781;50.928;4.440;2023-08-31T15:49:35;22.20;99.90
21246;DHT22;10781;50.928;4.440;2023-08-31T15:52:02;21.80;99.90
21246;DHT22;10781;50.928;4.440;2023-08-31T15:54:29;21.60;99.90
21246;DHT22;10781;50.928;4.440;2023-08-31T15:56:55;21.60;99.90